Dobrodošli na spletni strani vremenske postaje Senovo. Vse informacije so informativnega značaja, saj vremenska postaja ni del državne mreže meteoroloških postaj. AKTUALNIH OBVESTIL NI.


Sneg/Led Od: 21-02-2018 00:00 Do: 23-02-2018 23:59 Opozorilo za: Sneg/Led Stopnja: Rumena info button
Veter Od: 21-02-2018 00:00 Do: 22-02-2018 23:59 Opozorilo za: Veter Stopnja: Rumena info button

Pogled proti Armezu več informacij Pogled proti Armezu


Lisca več informacij Lisca


Radar strel več informacij blitzortung!


opozorilo za sneg/led več informacij rain snow radar


Obiščite še:

Template documentation
and downloads

And another site



Weather Underground, zgodovina - Tekstovno

Dnevni povzetek za Januar 1, 2018 Enote:  Angleško    Metrično   Obe
« Predhodni Dan
Naslednji Dan »
Dnevni Tedenski Mesečni Letni Po meri
  Višja: Nižja: Povprečje:
Temperatura: TemperatureC °F 4.6 °F 6.9 °F
Točka rosišča: DewpointC °F 2.8 °F 4.7 °F
Vlažnost: Humidity % 76 % 85 %
Hitrost vetra: WindSpeedKMH mph 0.0 mph 3.4 mph
Sunki vetra: WindSpeedGustKMH mph - -
Veter:- - South
Zračni tlak: PressurehPa in 1007.0 in -
Padavine: 13.0 in    
Historical Graphs
 
 
Tabelarni podarki za Januar 1, 2018
Čas Temperatura Točka rosišča Zračni tlak Veter Hitrost vetra Sunki vetra Vlažnost Intenziteta padavin (urna)
TemperatureC °F DewpointC °F PressurehPa in Calm     Humidity % HourlyPrecipMM in
00:00 7.7 °F 3.7 °F 1012.1 in South 3.5 mph 6.9 mph 76 % 0.0 in
00:05 7.7 °F 3.7 °F 1012.1 in SSW 3.2 mph 6.9 mph 76 % 0.0 in
00:07 7.7 °F 3.7 °F 1012.1 in SW 2.4 mph 6.9 mph 76 % 0.0 in
00:12 7.8 °F 3.8 °F 1012.1 in SSW 2.6 mph 6.9 mph 76 % 0.0 in
00:17 7.8 °F 3.8 °F 1012.1 in SSW 2.7 mph 6.9 mph 76 % 0.0 in
00:21 7.8 °F 3.8 °F 1012.1 in WSW 2.1 mph 4.3 mph 76 % 0.0 in
00:23 7.8 °F 3.8 °F 1012.1 in SW 2.1 mph 4.7 mph 76 % 0.0 in
00:24 7.8 °F 3.8 °F 1012.1 in SW 2.3 mph 5.5 mph 76 % 0.0 in
00:29 7.9 °F 3.9 °F 1012.1 in SSW 3.9 mph 11.9 mph 76 % 0.0 in
00:30 7.9 °F 3.9 °F 1012.1 in SSW 3.9 mph 11.9 mph 76 % 0.0 in
00:35 8.0 °F 4.0 °F 1012.1 in SW 4.0 mph 11.9 mph 76 % 0.0 in
00:38 8.1 °F 4.1 °F 1012.1 in SW 3.9 mph 7.9 mph 76 % 0.0 in
00:39 8.1 °F 4.1 °F 1012.1 in WSW 3.5 mph 7.9 mph 76 % 0.0 in
00:44 8.1 °F 4.1 °F 1012.1 in WSW 2.7 mph 6.9 mph 76 % 0.0 in
00:49 8.2 °F 4.2 °F 1012.1 in SW 2.9 mph 6.4 mph 76 % 0.0 in
00:54 8.3 °F 4.3 °F 1012.1 in WSW 3.7 mph 8.7 mph 76 % 0.0 in
00:55 8.3 °F 4.3 °F 1012.1 in WSW 3.7 mph 8.7 mph 76 % 0.0 in
00:57 8.3 °F 4.3 °F 1012.1 in WSW 3.5 mph 8.7 mph 76 % 0.0 in
01:02 8.2 °F 4.2 °F 1011.1 in WSW 3.2 mph 10.1 mph 76 % 0.0 in
01:04 8.2 °F 4.2 °F 1011.1 in WSW 3.5 mph 10.1 mph 76 % 0.0 in
01:09 8.2 °F 4.2 °F 1011.1 in WSW 3.5 mph 10.1 mph 76 % 0.0 in
01:10 8.2 °F 4.2 °F 1011.1 in WSW 3.5 mph 10.1 mph 76 % 0.0 in
01:15 8.2 °F 4.2 °F 1011.1 in West 2.3 mph 5.5 mph 76 % 0.0 in
01:16 8.2 °F 4.2 °F 1011.1 in West 1.6 mph 5.5 mph 76 % 0.0 in
01:20 8.1 °F 4.1 °F 1011.1 in WSW 1.1 mph 5.5 mph 76 % 0.0 in
01:25 8.0 °F 4.0 °F 1011.1 in SW 1.1 mph 5.0 mph 76 % 0.0 in
01:29 7.9 °F 4.1 °F 1011.1 in SW 1.3 mph 5.0 mph 77 % 0.0 in
01:31 7.9 °F 4.1 °F 1011.1 in SSW 0.6 mph 4.0 mph 77 % 0.0 in
01:37 7.6 °F 3.6 °F 1011.1 in NW 0.3 mph 1.8 mph 76 % 0.0 in
01:42 7.5 °F 3.6 °F 1011.1 in WSW 1.3 mph 5.8 mph 76 % 0.0 in
01:47 7.5 °F 3.6 °F 1011.1 in WSW 1.3 mph 5.8 mph 76 % 0.0 in
01:51 7.3 °F 3.3 °F 1011.1 in West 1.1 mph 5.0 mph 76 % 0.0 in
01:56 7.3 °F 3.6 °F 1011.1 in West 1.4 mph 6.4 mph 77 % 0.0 in
01:57 7.3 °F 3.6 °F 1011.1 in West 1.8 mph 6.4 mph 77 % 0.0 in
01:58 7.3 °F 3.6 °F 1011.1 in WSW 2.1 mph 6.4 mph 77 % 0.0 in
02:02 7.3 °F 3.6 °F 1011.1 in SW 3.1 mph 7.9 mph 77 % 0.0 in
02:07 7.3 °F 3.6 °F 1011.1 in SW 4.2 mph 7.9 mph 77 % 0.0 in
02:10 7.3 °F 3.6 °F 1011.1 in SW 3.4 mph 7.9 mph 77 % 0.0 in
02:15 7.4 °F 3.6 °F 1010.0 in WNW 3.9 mph 13.0 mph 77 % 0.0 in
02:16 7.4 °F 3.6 °F 1010.0 in WNW 4.0 mph 13.0 mph 77 % 0.0 in
02:17 7.4 °F 3.6 °F 1010.0 in NW 4.2 mph 13.0 mph 77 % 0.0 in
02:22 7.4 °F 3.6 °F 1010.0 in NW 4.2 mph 9.7 mph 77 % 0.0 in
02:23 7.4 °F 3.6 °F 1010.0 in NW 4.3 mph 9.7 mph 77 % 0.0 in
02:28 7.5 °F 3.9 °F 1011.1 in West 3.1 mph 7.9 mph 78 % 0.0 in
02:33 7.5 °F 3.9 °F 1011.1 in West 3.1 mph 9.0 mph 78 % 0.0 in
02:34 7.5 °F 3.9 °F 1011.1 in West 2.6 mph 9.0 mph 78 % 0.0 in
02:39 7.5 °F 3.9 °F 1011.1 in West 2.9 mph 9.0 mph 78 % 0.0 in
02:41 7.5 °F 3.9 °F 1011.1 in West 2.4 mph 9.0 mph 78 % 0.0 in
02:46 7.4 °F 3.8 °F 1011.1 in NNW 1.4 mph 4.3 mph 78 % 0.0 in
02:48 7.4 °F 3.8 °F 1011.1 in NNW 1.1 mph 4.3 mph 78 % 0.0 in
02:49 7.3 °F 3.7 °F 1011.1 in NNW 1.1 mph 4.3 mph 78 % 0.0 in
02:54 7.2 °F 3.6 °F 1011.1 in West 1.0 mph 4.3 mph 78 % 0.0 in
02:58 7.0 °F 3.4 °F 1011.1 in WSW 0.2 mph 2.6 mph 78 % 0.0 in
02:59 7.0 °F 3.4 °F 1011.1 in WSW 0.2 mph 2.6 mph 78 % 0.0 in
03:03 6.8 °F 3.4 °F 1011.1 in NW 0.2 mph 3.5 mph 79 % 0.0 in
03:06 6.7 °F 3.3 °F 1011.1 in NW 0.3 mph 3.5 mph 79 % 0.0 in
03:09 6.7 °F 3.3 °F 1011.1 in West 0.8 mph 4.7 mph 79 % 0.0 in
03:12 6.8 °F 3.4 °F 1011.1 in WSW 1.4 mph 5.5 mph 79 % 0.0 in
03:15 6.8 °F 3.4 °F 1010.0 in WSW 2.1 mph 6.1 mph 79 % 0.0 in
03:20 6.9 °F 3.5 °F 1010.0 in WSW 3.9 mph 9.7 mph 79 % 0.0 in
03:21 6.9 °F 3.5 °F 1010.0 in WSW 4.2 mph 9.7 mph 79 % 0.0 in
03:26 7.1 °F 3.7 °F 1010.0 in West 5.1 mph 9.7 mph 79 % 0.0 in
03:31 7.2 °F 4.0 °F 1010.0 in West 4.7 mph 9.0 mph 80 % 0.0 in
03:34 7.2 °F 4.0 °F 1010.0 in WNW 4.7 mph 7.9 mph 80 % 0.0 in
03:36 7.3 °F 4.1 °F 1010.0 in WNW 3.9 mph 6.9 mph 80 % 0.0 in
03:40 7.3 °F 4.1 °F 1010.0 in WNW 2.9 mph 6.9 mph 80 % 0.0 in
03:42 7.3 °F 4.1 °F 1010.0 in West 2.3 mph 9.0 mph 80 % 0.0 in
03:46 7.4 °F 4.2 °F 1010.0 in SW 2.6 mph 9.0 mph 80 % 0.0 in
03:48 7.3 °F 4.1 °F 1010.0 in WSW 2.9 mph 9.0 mph 80 % 0.0 in
03:53 7.4 °F 4.2 °F 1010.0 in West 3.5 mph 7.9 mph 80 % 0.0 in
03:58 7.4 °F 4.3 °F 1010.0 in West 4.5 mph 7.9 mph 81 % 0.0 in
04:00 7.4 °F 4.3 °F 1010.0 in West 4.7 mph 7.9 mph 81 % 0.0 in
04:01 7.4 °F 4.3 °F 1010.0 in West 4.7 mph 7.9 mph 81 % 0.0 in
04:04 7.4 °F 4.3 °F 1010.0 in West 4.5 mph 7.9 mph 81 % 0.0 in
04:09 7.3 °F 4.3 °F 1010.0 in WSW 4.0 mph 7.6 mph 81 % 0.0 in
04:14 7.3 °F 4.3 °F 1009.0 in SW 6.0 mph 13.7 mph 81 % 0.0 in
04:19 7.3 °F 4.3 °F 1009.0 in SW 7.1 mph 13.7 mph 81 % 0.0 in
04:24 7.3 °F 4.3 °F 1009.0 in SW 6.4 mph 9.7 mph 81 % 0.0 in
04:26 7.3 °F 4.3 °F 1009.0 in SW 6.3 mph 9.7 mph 81 % 0.0 in
04:29 7.2 °F 4.2 °F 1009.0 in SW 6.0 mph 9.7 mph 81 % 0.0 in
04:33 7.3 °F 4.3 °F 1009.0 in SSW 5.8 mph 9.0 mph 81 % 0.0 in
04:35 7.2 °F 4.2 °F 1009.0 in SSW 5.8 mph 9.0 mph 81 % 0.0 in
04:38 7.2 °F 4.2 °F 1009.0 in SSW 5.6 mph 9.0 mph 81 % 0.0 in
04:43 7.2 °F 4.2 °F 1009.0 in SW 5.8 mph 10.1 mph 81 % 0.0 in
04:48 7.2 °F 4.2 °F 1009.0 in SW 5.0 mph 10.1 mph 81 % 0.0 in
04:49 7.2 °F 4.2 °F 1009.0 in SW 4.8 mph 10.1 mph 81 % 0.0 in
04:54 7.3 °F 4.3 °F 1009.0 in SSW 3.2 mph 6.4 mph 81 % 0.0 in
04:58 7.2 °F 4.3 °F 1008.0 in SW 2.9 mph 6.1 mph 82 % 0.0 in
05:03 7.3 °F 4.4 °F 1008.0 in SW 3.4 mph 6.9 mph 82 % 0.0 in
05:08 7.3 °F 4.4 °F 1008.0 in WSW 3.9 mph 8.7 mph 82 % 0.0 in
05:12 7.4 °F 4.5 °F 1008.0 in WSW 3.7 mph 8.7 mph 82 % 0.0 in
05:17 7.4 °F 4.5 °F 1009.0 in SW 2.9 mph 6.9 mph 82 % 0.0 in
05:19 7.4 °F 4.5 °F 1009.0 in SW 3.2 mph 6.4 mph 82 % 0.0 in
05:21 7.5 °F 4.6 °F 1009.0 in SW 3.7 mph 7.9 mph 82 % 0.0 in
05:24 7.5 °F 4.6 °F 1009.0 in SW 4.2 mph 7.9 mph 82 % 0.0 in
05:29 7.5 °F 4.6 °F 1008.0 in SW 5.3 mph 9.0 mph 82 % 0.0 in
05:30 7.5 °F 4.6 °F 1008.0 in SW 5.1 mph 9.0 mph 82 % 0.0 in
05:35 7.5 °F 4.6 °F 1008.0 in SW 4.0 mph 9.0 mph 82 % 0.0 in
05:40 7.5 °F 4.6 °F 1008.0 in SW 4.2 mph 9.7 mph 82 % 0.0 in
05:43 7.5 °F 4.6 °F 1009.0 in SW 4.5 mph 10.5 mph 82 % 0.0 in
05:48 7.5 °F 4.6 °F 1009.0 in WSW 4.3 mph 10.5 mph 82 % 0.0 in
05:49 7.5 °F 4.6 °F 1009.0 in WSW 4.0 mph 10.5 mph 82 % 0.0 in
05:51 7.5 °F 4.6 °F 1009.0 in WSW 4.0 mph 10.5 mph 82 % 0.0 in
05:56 7.5 °F 4.6 °F 1009.0 in SW 3.1 mph 7.6 mph 82 % 0.0 in
06:01 7.6 °F 4.9 °F 1009.0 in SW 4.2 mph 11.9 mph 83 % 0.0 in
06:03 7.6 °F 4.9 °F 1009.0 in SW 4.5 mph 11.9 mph 83 % 0.0 in
06:08 7.7 °F 5.0 °F 1009.0 in SW 4.7 mph 11.9 mph 83 % 0.0 in
06:13 7.7 °F 5.0 °F 1008.0 in SW 4.2 mph 8.7 mph 83 % 0.0 in
06:18 7.7 °F 5.0 °F 1008.0 in SW 2.9 mph 8.7 mph 83 % 0.0 in
06:20 7.8 °F 5.1 °F 1008.0 in WSW 2.4 mph 8.7 mph 83 % 0.0 in
06:25 7.8 °F 5.1 °F 1008.0 in SW 2.9 mph 9.7 mph 83 % 0.0 in
06:30 7.9 °F 5.2 °F 1008.0 in SW 5.0 mph 10.5 mph 83 % 0.0 in
06:33 7.9 °F 5.2 °F 1008.0 in SW 5.1 mph 10.5 mph 83 % 0.0 in
06:38 7.8 °F 5.1 °F 1008.0 in SW 3.5 mph 6.9 mph 83 % 0.0 in
06:41 7.8 °F 5.1 °F 1008.0 in SW 2.3 mph 6.9 mph 83 % 0.0 in
06:42 7.8 °F 5.1 °F 1008.0 in SW 1.9 mph 6.4 mph 83 % 0.0 in
06:47 7.8 °F 5.1 °F 1008.0 in SW 2.7 mph 6.4 mph 83 % 0.0 in
06:48 7.8 °F 5.1 °F 1008.0 in SSW 2.4 mph 6.4 mph 83 % 0.0 in
06:50 7.8 °F 5.1 °F 1008.0 in SSW 3.1 mph 6.4 mph 83 % 0.0 in
06:55 7.9 °F 5.2 °F 1008.0 in SW 3.4 mph 16.3 mph 83 % 0.0 in
07:00 8.1 °F 5.4 °F 1009.0 in SW 4.8 mph 16.3 mph 83 % 0.0 in
07:03 8.2 °F 5.5 °F 1009.0 in SW 6.1 mph 16.3 mph 83 % 0.0 in
07:08 8.3 °F 5.6 °F 1009.0 in SW 6.4 mph 13.0 mph 83 % 0.0 in
07:09 8.3 °F 5.6 °F 1009.0 in SW 6.4 mph 13.0 mph 83 % 0.0 in
07:14 8.4 °F 5.7 °F 1008.0 in SW 6.0 mph 12.6 mph 83 % 0.0 in
07:19 8.5 °F 5.8 °F 1008.0 in SSW 5.8 mph 9.0 mph 83 % 0.0 in
07:20 8.5 °F 5.8 °F 1008.0 in SW 5.8 mph 9.0 mph 83 % 0.0 in
07:25 8.6 °F 5.9 °F 1008.0 in SW 6.3 mph 13.7 mph 83 % 0.0 in
07:27 8.6 °F 5.9 °F 1008.0 in SW 6.1 mph 13.7 mph 83 % 0.0 in
07:32 8.6 °F 5.9 °F 1009.0 in SSW 5.8 mph 13.7 mph 83 % 0.0 in
07:36 8.7 °F 6.0 °F 1009.0 in SSW 5.3 mph 10.1 mph 83 % 0.0 in
07:41 8.7 °F 6.0 °F 1009.0 in SW 5.8 mph 9.7 mph 83 % 0.0 in
07:42 8.8 °F 6.1 °F 1009.0 in SSW 5.8 mph 9.7 mph 83 % 0.0 in
07:43 8.8 °F 6.1 °F 1010.0 in SW 5.8 mph 9.7 mph 83 % 0.0 in
07:47 8.8 °F 6.1 °F 1010.0 in SW 6.0 mph 9.7 mph 83 % 0.0 in
07:52 8.8 °F 6.1 °F 1010.0 in SW 5.6 mph 10.5 mph 83 % 0.0 in
07:56 8.8 °F 6.1 °F 1010.0 in SSW 6.3 mph 13.7 mph 83 % 0.0 in
08:01 8.8 °F 6.1 °F 1010.0 in SSW 6.8 mph 13.7 mph 83 % 0.0 in
08:02 8.8 °F 6.1 °F 1010.0 in SSW 6.8 mph 13.7 mph 83 % 0.0 in
08:07 8.7 °F 6.0 °F 1010.0 in South 6.1 mph 9.0 mph 83 % 0.0 in
08:12 8.7 °F 6.0 °F 1011.1 in South 5.5 mph 9.0 mph 83 % 0.0 in
08:16 8.6 °F 5.9 °F 1011.1 in South 5.1 mph 7.9 mph 83 % 0.0 in
08:19 8.5 °F 5.8 °F 1011.1 in South 4.8 mph 7.6 mph 83 % 0.3 in
08:20 8.5 °F 5.8 °F 1011.1 in South 4.8 mph 7.6 mph 83 % 0.3 in
08:21 8.5 °F 5.8 °F 1011.1 in South 4.8 mph 7.6 mph 83 % 0.3 in
08:26 8.5 °F 5.8 °F 1011.1 in SSW 4.7 mph 6.9 mph 83 % 0.3 in
08:27 8.5 °F 5.8 °F 1011.1 in SSW 4.5 mph 6.9 mph 83 % 0.3 in
08:28 8.5 °F 5.8 °F 1011.1 in SSW 4.7 mph 6.9 mph 83 % 0.3 in
08:32 8.4 °F 5.7 °F 1011.1 in SSW 4.8 mph 6.9 mph 83 % 0.3 in
08:37 8.4 °F 5.8 °F 1011.1 in South 5.3 mph 8.7 mph 84 % 0.3 in
08:39 8.4 °F 5.8 °F 1011.1 in South 5.0 mph 8.7 mph 84 % 0.3 in
08:44 8.2 °F 5.7 °F 1011.1 in SSW 4.3 mph 8.7 mph 84 % 0.3 in
08:45 8.2 °F 5.7 °F 1011.1 in SSW 4.3 mph 8.7 mph 84 % 0.3 in
08:50 8.2 °F 5.7 °F 1011.1 in WSW 3.7 mph 5.5 mph 84 % 0.3 in
08:51 8.2 °F 5.7 °F 1011.1 in WSW 3.9 mph 5.5 mph 84 % 0.3 in
08:55 8.1 °F 5.6 °F 1011.1 in WSW 3.7 mph 5.5 mph 84 % 0.3 in
08:58 8.1 °F 5.6 °F 1011.1 in WSW 3.1 mph 5.5 mph 84 % 0.3 in
09:00 8.1 °F 5.6 °F 1011.1 in WSW 2.4 mph 4.7 mph 84 % 0.3 in
09:04 8.1 °F 5.7 °F 1011.1 in SW 1.0 mph 6.1 mph 85 % 0.3 in
09:10 8.1 °F 5.7 °F 1011.1 in SW 2.7 mph 6.1 mph 85 % 0.3 in
09:13 8.1 °F 5.7 °F 1011.1 in SW 4.5 mph 6.1 mph 85 % 0.3 in
09:18 8.1 °F 5.7 °F 1011.1 in SW 4.7 mph 6.9 mph 85 % 0.0 in
09:23 8.2 °F 6.0 °F 1011.1 in WSW 5.0 mph 6.9 mph 86 % 0.0 in
09:24 8.2 °F 6.0 °F 1011.1 in WSW 4.7 mph 6.9 mph 86 % 0.0 in
09:26 8.2 °F 6.0 °F 1011.1 in WSW 4.0 mph 6.9 mph 86 % 0.0 in
09:31 8.2 °F 6.0 °F 1011.1 in SW 1.9 mph 4.3 mph 86 % 0.0 in
09:33 8.2 °F 6.0 °F 1011.1 in SW 1.3 mph 4.0 mph 86 % 0.0 in
09:38 8.1 °F 5.9 °F 1011.1 in North 0.2 mph   86 % 0.0 in
09:42 8.2 °F 6.0 °F 1011.1 in Calm     86 % 0.0 in
09:44 8.2 °F 6.0 °F 1011.1 in Calm     86 % 0.0 in
09:49 8.2 °F 6.2 °F 1011.1 in Calm     87 % 0.0 in
09:54 8.2 °F 6.2 °F 1011.1 in Calm     87 % 0.0 in
09:59 8.2 °F 6.2 °F 1011.1 in Calm     87 % 0.0 in
10:02 8.2 °F 6.2 °F 1011.1 in Calm     87 % 0.0 in
10:03 8.2 °F 6.2 °F 1011.1 in Calm     87 % 0.0 in
10:08 8.2 °F 6.2 °F 1011.1 in Calm     87 % 0.0 in
10:09 8.2 °F 6.3 °F 1011.1 in Calm     88 % 0.0 in
10:12 8.2 °F 6.3 °F 1011.1 in Calm     88 % 0.0 in
10:15 8.2 °F 6.3 °F 1011.1 in Calm     88 % 0.0 in
10:20 8.2 °F 6.3 °F 1011.1 in Calm     88 % 0.3 in
10:23 8.2 °F 6.3 °F 1011.1 in Calm     88 % 0.3 in
10:24 8.2 °F 6.3 °F 1011.1 in Calm     88 % 0.3 in
10:29 8.2 °F 6.3 °F 1011.1 in Calm     88 % 0.3 in
10:33 8.2 °F 6.5 °F 1011.1 in Calm     89 % 0.3 in
10:34 8.2 °F 6.5 °F 1011.1 in Calm     89 % 0.3 in
10:39 8.1 °F 6.4 °F 1011.1 in Calm     89 % 0.3 in
10:41 8.1 °F 6.4 °F 1011.1 in Calm     89 % 0.3 in
10:42 8.1 °F 6.4 °F 1011.1 in Calm     89 % 0.3 in
10:47 8.1 °F 6.4 °F 1011.1 in Calm     89 % 0.3 in
10:50 8.1 °F 6.4 °F 1011.1 in Calm     89 % 0.3 in
10:55 8.2 °F 6.7 °F 1011.1 in Calm     90 % 0.3 in
11:00 8.2 °F 6.7 °F 1011.1 in Calm     90 % 0.3 in
11:05 8.2 °F 6.7 °F 1011.1 in Calm     90 % 0.3 in
11:06 8.2 °F 6.7 °F 1011.1 in Calm     90 % 0.3 in
11:11 8.2 °F 6.7 °F 1011.1 in Calm     90 % 0.3 in
11:12 8.3 °F 6.8 °F 1010.0 in Calm     90 % 0.3 in
11:17 8.3 °F 6.8 °F 1010.0 in Calm     90 % 0.0 in
11:19 8.3 °F 6.9 °F 1010.0 in Calm     91 % 0.0 in
11:24 8.4 °F 7.0 °F 1010.0 in Calm     91 % 0.0 in
11:26 8.4 °F 7.0 °F 1010.0 in Calm     91 % 0.0 in
11:31 8.4 °F 7.0 °F 1010.0 in Calm     91 % 0.0 in
11:35 8.5 °F 7.1 °F 1010.0 in Calm     91 % 0.0 in
11:40 8.5 °F 7.1 °F 1010.0 in Calm     91 % 0.0 in
11:42 8.5 °F 7.1 °F 1010.0 in Calm     91 % 0.0 in
11:47 8.5 °F 7.1 °F 1009.0 in Calm     91 % 0.0 in
11:49 8.5 °F 7.1 °F 1009.0 in Calm     91 % 0.0 in
11:54 8.5 °F 7.3 °F 1009.0 in Calm     92 % 0.0 in
11:59 8.6 °F 7.4 °F 1009.0 in Calm     92 % 0.0 in
12:02 8.6 °F 7.4 °F 1009.0 in Calm     92 % 0.0 in
12:07 8.6 °F 7.4 °F 1009.0 in Calm     92 % 0.0 in
12:10 8.6 °F 7.4 °F 1009.0 in Calm   2.6 mph 92 % 0.0 in
12:15 8.6 °F 7.4 °F 1009.0 in Calm   2.6 mph 92 % 0.0 in
12:20 8.6 °F 7.4 °F 1009.0 in Calm   2.1 mph 92 % 0.0 in
12:22 8.6 °F 7.4 °F 1009.0 in Calm   2.1 mph 92 % 0.0 in
12:27 8.5 °F 7.3 °F 1009.0 in Calm     92 % 0.0 in
12:29 8.5 °F 7.3 °F 1008.0 in Calm     92 % 0.0 in
12:32 8.6 °F 7.4 °F 1008.0 in Calm     92 % 0.0 in
12:37 8.6 °F 7.4 °F 1008.0 in Calm     92 % 0.0 in
12:40 8.6 °F 7.4 °F 1008.0 in Calm     92 % 0.0 in
12:45 8.6 °F 7.4 °F 1009.0 in Calm     92 % 0.0 in
12:46 8.6 °F 7.4 °F 1009.0 in Calm     92 % 0.0 in
12:51 8.7 °F 7.5 °F 1009.0 in Calm     92 % 0.0 in
12:56 8.7 °F 7.5 °F 1009.0 in Calm     92 % 0.0 in
12:57 8.7 °F 7.5 °F 1009.0 in Calm     92 % 0.0 in
13:00 8.7 °F 7.5 °F 1009.0 in Calm     92 % 0.0 in
13:03 8.7 °F 7.5 °F 1009.0 in Calm     92 % 0.0 in
13:05 8.8 °F 7.6 °F 1009.0 in Calm     92 % 0.0 in
13:10 8.8 °F 7.6 °F 1009.0 in South 0.3 mph 3.5 mph 92 % 0.0 in
13:11 8.8 °F 7.6 °F 1009.0 in SSW 0.6 mph 3.5 mph 92 % 0.0 in
13:16 8.9 °F 7.8 °F 1008.0 in SSW 1.6 mph 4.0 mph 93 % 0.0 in
13:21 8.9 °F 7.8 °F 1008.0 in SSW 1.1 mph 4.0 mph 93 % 0.0 in
13:24 8.9 °F 7.8 °F 1008.0 in SW 1.3 mph 3.5 mph 93 % 0.0 in
13:26 8.9 °F 7.8 °F 1008.0 in SW 0.8 mph 3.5 mph 93 % 0.0 in
13:31 9.0 °F 7.8 °F 1008.0 in SW 0.6 mph 3.5 mph 92 % 0.0 in
13:34 9.1 °F 7.9 °F 1008.0 in SSE 0.2 mph 1.8 mph 92 % 0.0 in
13:37 9.1 °F 7.9 °F 1008.0 in SSE 0.2 mph 1.8 mph 92 % 0.0 in
13:42 9.1 °F 7.9 °F 1008.0 in Calm     92 % 0.0 in
13:44 9.1 °F 7.9 °F 1008.0 in Calm     92 % 0.0 in
13:47 9.1 °F 7.9 °F 1008.0 in Calm     92 % 0.0 in
13:54 9.1 °F 7.9 °F 1008.0 in Calm     92 % 0.0 in
13:59 9.1 °F 7.9 °F 1008.0 in Calm     92 % 0.0 in
14:00 9.1 °F 7.9 °F 1008.0 in Calm     92 % 0.0 in
14:01 9.1 °F 7.9 °F 1008.0 in Calm     92 % 0.0 in
14:06 9.1 °F 7.9 °F 1008.0 in Calm     92 % 0.0 in
14:08 9.1 °F 7.9 °F 1008.0 in Calm     92 % 0.0 in
14:13 9.0 °F 7.8 °F 1008.0 in Calm     92 % 0.0 in
14:15 9.0 °F 7.8 °F 1008.0 in Calm     92 % 0.0 in
14:20 9.0 °F 7.8 °F 1008.0 in Calm     92 % 0.0 in
14:25 8.9 °F 7.7 °F 1008.0 in WSW 0.2 mph 2.6 mph 92 % 0.0 in
14:27 8.9 °F 7.7 °F 1008.0 in WSW 0.3 mph 2.6 mph 92 % 0.0 in
14:32 8.9 °F 7.7 °F 1008.0 in WSW 0.5 mph 2.6 mph 92 % 0.0 in
14:37 8.8 °F 7.6 °F 1008.0 in WSW 0.3 mph 4.3 mph 92 % 0.0 in
14:38 8.8 °F 7.6 °F 1008.0 in WSW 0.5 mph 4.3 mph 92 % 0.0 in
14:40 8.8 °F 7.6 °F 1008.0 in WSW 1.1 mph 4.3 mph 92 % 0.0 in
14:44 8.7 °F 7.5 °F 1008.0 in WSW 1.1 mph 5.8 mph 92 % 0.0 in
14:46 8.7 °F 7.5 °F 1008.0 in SW 2.1 mph 9.0 mph 92 % 0.0 in
14:51 8.7 °F 7.5 °F 1008.0 in SW 4.0 mph 9.3 mph 92 % 0.0 in
14:53 8.7 °F 7.5 °F 1008.0 in SW 4.7 mph 9.3 mph 92 % 0.3 in
14:58 8.7 °F 7.5 °F 1008.0 in WSW 4.8 mph 9.3 mph 92 % 1.0 in
14:59 8.7 °F 7.5 °F 1008.0 in WSW 4.5 mph 9.3 mph 92 % 1.0 in
15:04 8.6 °F 7.4 °F 1008.0 in NNW 3.4 mph 8.7 mph 92 % 1.5 in
15:08 8.5 °F 7.3 °F 1008.0 in NNE 2.1 mph 8.7 mph 92 % 1.8 in
15:09 8.4 °F 7.2 °F 1008.0 in NE 1.8 mph 8.7 mph 92 % 2.3 in
15:14 8.3 °F 6.9 °F 1009.0 in NE 3.9 mph 12.2 mph 91 % 2.5 in
15:17 8.2 °F 6.8 °F 1009.0 in ENE 5.5 mph 12.2 mph 91 % 3.0 in
15:22 7.9 °F 6.5 °F 1009.0 in ENE 8.5 mph 23.3 mph 91 % 3.8 in
15:27 7.7 °F 6.2 °F 1009.0 in ENE 7.9 mph 23.3 mph 90 % 4.1 in
15:29 7.5 °F 5.9 °F 1009.0 in NE 7.6 mph 23.3 mph 90 % 4.1 in
15:34 7.2 °F 5.7 °F 1009.0 in ENE 6.1 mph 18.3 mph 90 % 4.6 in
15:36 7.0 °F 5.3 °F 1009.0 in ENE 7.7 mph 22.7 mph 89 % 4.8 in
15:41 6.7 °F 4.8 °F 1009.0 in ENE 10.5 mph 22.7 mph 88 % 5.1 in
15:43 6.5 °F 4.7 °F 1010.0 in ENE 10.3 mph 22.7 mph 88 % 5.1 in
15:48 6.4 °F 4.4 °F 1010.0 in ENE 8.8 mph 16.9 mph 87 % 5.3 in
15:57 6.0 °F 4.0 °F 1010.0 in ENE 8.8 mph 23.8 mph 87 % 5.1 in
16:01 5.8 °F 3.8 °F 1008.0 in ENE 13.0 mph 28.5 mph 87 % 5.1 in
16:08 5.7 °F 3.6 °F 1008.0 in NE 10.8 mph 28.5 mph 86 % 4.3 in
16:14 5.5 °F 3.3 °F 1008.0 in ENE 8.5 mph 20.1 mph 86 % 4.3 in
16:19 5.4 °F 3.2 °F 1008.0 in NE 6.9 mph 20.1 mph 86 % 3.8 in
16:23 5.4 °F 3.2 °F 1008.0 in ENE 9.3 mph 11.9 mph 86 % 3.0 in
16:24 5.4 °F 3.2 °F 1008.0 in ENE 8.2 mph 11.9 mph 86 % 3.3 in
16:25 5.4 °F 3.2 °F 1008.0 in East 7.1 mph 7.1 mph 86 % 3.3 in
16:26 5.4 °F 3.2 °F 1008.0 in East 6.4 mph 6.4 mph 86 % 3.3 in
16:27 5.4 °F 3.2 °F 1008.0 in East 5.6 mph 5.6 mph 86 % 3.3 in
16:28 5.3 °F 3.2 °F 1008.0 in ESE 5.1 mph 6.1 mph 86 % 3.3 in
16:29 5.3 °F 3.2 °F 1008.0 in ESE 5.1 mph 6.1 mph 86 % 3.6 in
16:30 5.3 °F 3.2 °F 1008.0 in SSW 4.7 mph 6.1 mph 86 % 3.6 in
16:31 5.3 °F 3.2 °F 1008.0 in SW 4.3 mph 6.4 mph 86 % 3.0 in
16:32 5.2 °F 3.1 °F 1008.0 in WSW 4.3 mph 6.4 mph 86 % 3.3 in
16:33 5.2 °F 3.1 °F 1008.0 in West 3.4 mph 6.4 mph 86 % 3.3 in
16:34 5.2 °F 3.1 °F 1008.0 in WSW 3.2 mph 6.4 mph 86 % 3.6 in
16:35 5.2 °F 3.1 °F 1008.0 in SW 3.2 mph 6.4 mph 86 % 3.6 in
16:36 5.2 °F 3.1 °F 1008.0 in SW 3.2 mph 6.4 mph 86 % 3.0 in
16:37 5.1 °F 2.9 °F 1008.0 in SW 3.4 mph 6.4 mph 86 % 3.0 in
16:38 5.1 °F 2.9 °F 1008.0 in SSW 3.5 mph 6.4 mph 86 % 3.3 in
16:39 5.1 °F 2.9 °F 1008.0 in SSE 3.4 mph 6.4 mph 86 % 3.3 in
16:40 5.1 °F 2.9 °F 1008.0 in SE 3.7 mph 6.4 mph 86 % 3.6 in
16:41 5.1 °F 2.9 °F 1008.0 in ESE 4.3 mph 6.4 mph 86 % 3.0 in
16:42 5.1 °F 2.9 °F 1008.0 in ESE 4.3 mph 6.4 mph 86 % 3.3 in
16:43 5.1 °F 2.9 °F 1008.0 in ESE 4.3 mph 9.3 mph 86 % 3.3 in
16:44 5.1 °F 2.9 °F 1008.0 in East 5.0 mph 9.3 mph 86 % 3.3 in
16:45 5.1 °F 2.9 °F 1009.0 in East 5.8 mph 9.3 mph 86 % 3.3 in
16:46 5.1 °F 2.9 °F 1009.0 in East 6.1 mph 9.3 mph 86 % 3.0 in
16:47 5.1 °F 2.9 °F 1009.0 in ENE 6.1 mph 9.3 mph 86 % 3.0 in
16:48 5.1 °F 2.9 °F 1009.0 in East 6.1 mph 9.3 mph 86 % 3.0 in
16:49 5.1 °F 2.9 °F 1009.0 in ENE 6.4 mph 9.3 mph 86 % 3.0 in
16:50 5.1 °F 2.9 °F 1009.0 in ENE 6.1 mph 9.3 mph 86 % 3.3 in
16:51 5.1 °F 2.9 °F 1009.0 in East 6.0 mph 9.3 mph 86 % 3.0 in
16:52 5.0 °F 2.8 °F 1009.0 in East 6.0 mph 9.3 mph 86 % 3.3 in
16:53 5.0 °F 2.8 °F 1009.0 in East 6.4 mph 9.0 mph 86 % 3.3 in
16:54 5.0 °F 2.8 °F 1009.0 in ESE 6.0 mph 6.9 mph 86 % 3.6 in
16:55 5.0 °F 2.8 °F 1009.0 in East 5.6 mph 9.0 mph 86 % 3.6 in
16:56 5.0 °F 2.8 °F 1009.0 in East 5.6 mph 9.0 mph 86 % 3.3 in
16:57 5.1 °F 2.9 °F 1009.0 in East 5.6 mph 10.1 mph 86 % 3.3 in
16:58 5.1 °F 2.9 °F 1009.0 in ESE 5.8 mph 10.1 mph 86 % 3.6 in
16:59 5.1 °F 2.9 °F 1009.0 in ESE 5.8 mph 10.1 mph 86 % 3.6 in
17:00 5.1 °F 2.9 °F 1009.0 in ESE 6.0 mph 10.1 mph 86 % 3.6 in
17:01 5.1 °F 2.9 °F 1009.0 in ESE 6.0 mph 10.1 mph 86 % 3.6 in
17:02 5.1 °F 2.9 °F 1009.0 in East 6.0 mph 10.1 mph 86 % 3.6 in
17:03 5.1 °F 2.9 °F 1009.0 in ESE 6.0 mph 10.1 mph 86 % 3.6 in
17:04 5.1 °F 2.9 °F 1009.0 in ESE 5.8 mph 10.1 mph 86 % 3.6 in
17:05 5.1 °F 2.9 °F 1009.0 in ESE 5.8 mph 12.6 mph 86 % 3.6 in
17:06 5.1 °F 2.9 °F 1009.0 in ESE 6.1 mph 12.6 mph 86 % 3.3 in
17:07 5.1 °F 2.9 °F 1009.0 in ESE 6.3 mph 12.6 mph 86 % 3.3 in
17:17 5.1 °F 2.9 °F 1009.0 in ESE 6.3 mph 12.6 mph 86 % 3.3 in
17:20 5.0 °F 2.8 °F 1009.0 in ESE 5.3 mph 11.9 mph 86 % 3.0 in
17:25 5.1 °F 2.9 °F 1009.0 in East 5.5 mph 11.9 mph 86 % 2.5 in
17:26 5.1 °F 2.9 °F 1009.0 in East 5.3 mph 11.9 mph 86 % 2.5 in
17:30 5.1 °F 2.9 °F 1010.0 in ESE 3.9 mph 7.9 mph 86 % 2.0 in
17:34 5.1 °F 2.9 °F 1010.0 in SE 3.5 mph 9.0 mph 86 % 2.0 in
17:37 5.1 °F 2.9 °F 1010.0 in SE 5.0 mph 11.1 mph 86 % 1.8 in
17:42 5.1 °F 2.9 °F 1009.0 in ESE 5.3 mph 11.1 mph 86 % 1.3 in
17:47 5.1 °F 2.9 °F 1009.0 in ESE 4.8 mph 11.9 mph 86 % 1.0 in
17:48 5.1 °F 2.9 °F 1009.0 in ESE 5.1 mph 11.9 mph 86 % 1.0 in
17:53 5.3 °F 3.2 °F 1009.0 in East 7.1 mph 12.2 mph 86 % 0.8 in
17:55 5.3 °F 3.2 °F 1009.0 in East 7.1 mph 12.6 mph 86 % 0.5 in
17:57 5.3 °F 3.2 °F 1009.0 in East 6.9 mph 12.6 mph 86 % 0.3 in
18:02 5.3 °F 3.2 °F 1009.0 in East 5.5 mph 12.6 mph 86 % 0.0 in
18:03 5.3 °F 3.2 °F 1009.0 in East 4.8 mph 12.6 mph 86 % 0.0 in
18:04 5.3 °F 3.2 °F 1009.0 in ESE 4.5 mph 12.6 mph 86 % 0.3 in
18:09 5.3 °F 3.2 °F 1009.0 in South 4.2 mph 6.9 mph 86 % 0.3 in
18:14 5.3 °F 3.2 °F 1009.0 in South 3.5 mph 6.9 mph 86 % 0.3 in
18:17 5.2 °F 3.1 °F 1009.0 in South 3.5 mph 17.7 mph 86 % 0.3 in
18:19 5.3 °F 3.2 °F 1009.0 in ESE 4.5 mph 17.7 mph 86 % 0.3 in
18:24 5.3 °F 3.2 °F 1009.0 in ESE 5.3 mph 17.7 mph 86 % 0.3 in
18:26 5.3 °F 3.2 °F 1009.0 in ESE 5.6 mph 17.7 mph 86 % 0.3 in
18:29 5.3 °F 3.2 °F 1009.0 in SE 4.5 mph 7.9 mph 86 % 0.3 in
18:34 5.3 °F 3.2 °F 1009.0 in SE 4.5 mph 7.6 mph 86 % 0.3 in
18:35 5.3 °F 3.2 °F 1009.0 in SE 4.5 mph 9.3 mph 86 % 0.3 in
18:40 5.3 °F 3.2 °F 1009.0 in ESE 6.1 mph 11.6 mph 86 % 0.3 in
18:41 5.3 °F 3.2 °F 1009.0 in ESE 6.1 mph 11.6 mph 86 % 0.3 in
18:42 5.3 °F 3.2 °F 1009.0 in ESE 6.3 mph 11.6 mph 86 % 0.3 in
18:47 5.4 °F 3.2 °F 1009.0 in ESE 6.1 mph 11.6 mph 86 % 0.3 in
18:49 5.4 °F 3.2 °F 1009.0 in ESE 6.1 mph 10.5 mph 86 % 0.3 in
18:54 5.3 °F 3.2 °F 1009.0 in East 4.8 mph 10.5 mph 86 % 0.3 in
18:58 5.2 °F 3.1 °F 1009.0 in NNE 3.7 mph 10.1 mph 86 % 0.3 in
19:00 5.1 °F 2.9 °F 1009.0 in North 2.3 mph 5.8 mph 86 % 0.3 in
19:05 5.1 °F 2.9 °F 1009.0 in North 1.8 mph 5.0 mph 86 % 0.0 in
19:06 5.0 °F 2.8 °F 1009.0 in NNE 1.8 mph 5.0 mph 86 % 0.0 in
19:10 5.0 °F 3.0 °F 1009.0 in NE 1.1 mph 5.0 mph 87 % 0.0 in
19:12 5.0 °F 3.0 °F 1009.0 in North 1.1 mph 4.3 mph 87 % 0.0 in
19:17 4.9 °F 2.9 °F 1008.0 in SW 1.8 mph 6.1 mph 87 % 0.0 in
19:19 4.9 °F 2.9 °F 1008.0 in SW 2.4 mph 6.1 mph 87 % 0.0 in
19:24 4.9 °F 2.9 °F 1008.0 in South 3.2 mph 6.1 mph 87 % 0.0 in
19:27 4.9 °F 2.9 °F 1008.0 in SSE 2.6 mph 4.7 mph 87 % 0.0 in
19:32 5.0 °F 3.0 °F 1008.0 in SSW 2.9 mph 8.7 mph 87 % 0.3 in
19:37 5.0 °F 3.0 °F 1008.0 in SSW 3.4 mph 8.7 mph 87 % 0.3 in
19:42 4.9 °F 3.1 °F 1008.0 in NE 1.9 mph 7.6 mph 88 % 0.3 in
19:43 4.9 °F 3.1 °F 1008.0 in NNE 1.9 mph 7.6 mph 88 % 0.3 in
19:48 5.0 °F 3.2 °F 1008.0 in East 1.4 mph 7.9 mph 88 % 0.3 in
19:49 5.0 °F 3.2 °F 1008.0 in East 1.4 mph 7.9 mph 88 % 0.3 in
19:50 5.0 °F 3.2 °F 1008.0 in ESE 1.4 mph 7.9 mph 88 % 0.3 in
19:55 5.0 °F 3.2 °F 1008.0 in East 0.8 mph 5.0 mph 88 % 0.5 in
19:58 5.0 °F 3.2 °F 1008.0 in SE 0.5 mph 5.0 mph 88 % 0.5 in
20:01 5.0 °F 3.2 °F 1008.0 in SE 1.0 mph 5.0 mph 88 % 0.5 in
20:06 5.0 °F 3.2 °F 1008.0 in SSW 1.1 mph 7.6 mph 88 % 0.5 in
20:09 5.0 °F 3.2 °F 1008.0 in NNE 2.1 mph 7.6 mph 88 % 0.5 in
20:12 4.9 °F 3.2 °F 1008.0 in North 2.7 mph 7.6 mph 89 % 0.5 in
20:17 4.9 °F 3.2 °F 1007.0 in North 2.4 mph 5.8 mph 89 % 0.5 in
20:18 4.9 °F 3.2 °F 1007.0 in NNW 2.1 mph 5.8 mph 89 % 0.5 in
20:19 4.9 °F 3.2 °F 1007.0 in NNW 2.1 mph 5.8 mph 89 % 0.5 in
20:24 5.0 °F 3.3 °F 1007.0 in East 1.4 mph 6.9 mph 89 % 0.5 in
20:29 5.1 °F 3.4 °F 1007.0 in ESE 3.1 mph 6.9 mph 89 % 0.5 in
20:30 5.1 °F 3.4 °F 1007.0 in ESE 3.1 mph 6.9 mph 89 % 0.3 in
20:35 5.1 °F 3.4 °F 1007.0 in SE 3.7 mph 6.4 mph 89 % 0.3 in
20:38 5.1 °F 3.4 °F 1007.0 in SE 3.2 mph 5.8 mph 89 % 0.3 in
20:43 5.1 °F 3.4 °F 1007.0 in ESE 3.9 mph 6.9 mph 89 % 0.3 in
20:46 5.2 °F 3.7 °F 1007.0 in ESE 3.9 mph 8.7 mph 90 % 0.3 in
20:47 5.2 °F 3.7 °F 1007.0 in ESE 3.9 mph 8.7 mph 90 % 0.3 in
20:52 5.3 °F 3.8 °F 1007.0 in East 5.5 mph 9.0 mph 90 % 0.0 in
20:57 5.3 °F 3.8 °F 1007.0 in East 5.8 mph 12.6 mph 90 % 0.0 in
20:58 5.3 °F 3.8 °F 1007.0 in East 6.0 mph 12.6 mph 90 % 0.0 in
21:02 5.3 °F 3.8 °F 1007.0 in East 5.0 mph 12.6 mph 90 % 0.0 in
21:07 5.4 °F 3.9 °F 1007.0 in East 5.3 mph 10.5 mph 90 % 0.0 in
21:12 5.4 °F 3.9 °F 1007.0 in East 5.1 mph 10.5 mph 90 % 0.0 in
21:17 5.4 °F 3.9 °F 1007.0 in ESE 4.7 mph 10.1 mph 90 % 0.0 in
21:19 5.4 °F 3.9 °F 1007.0 in East 5.1 mph 10.1 mph 90 % 0.0 in
21:21 5.4 °F 3.9 °F 1007.0 in East 5.1 mph 10.1 mph 90 % 0.0 in
21:25 5.5 °F 4.0 °F 1007.0 in ENE 6.1 mph 10.1 mph 90 % 0.0 in
21:30 5.6 °F 4.1 °F 1007.0 in NE 4.2 mph 9.0 mph 90 % 0.0 in
21:35 5.6 °F 4.1 °F 1007.0 in ENE 4.3 mph 12.2 mph 90 % 0.0 in
21:36 5.6 °F 4.1 °F 1007.0 in East 5.0 mph 12.2 mph 90 % 0.0 in
21:41 5.6 °F 4.1 °F 1007.0 in East 5.8 mph 12.2 mph 90 % 0.0 in
21:42 5.6 °F 4.1 °F 1007.0 in East 5.3 mph 9.7 mph 90 % 0.0 in
21:47 5.6 °F 4.1 °F 1007.0 in ENE 3.7 mph 6.9 mph 90 % 0.3 in
21:49 5.6 °F 4.1 °F 1007.0 in ENE 3.4 mph 7.6 mph 90 % 0.3 in
21:54 5.7 °F 4.2 °F 1007.0 in ENE 4.7 mph 10.5 mph 90 % 0.3 in
21:55 5.7 °F 4.2 °F 1007.0 in ENE 4.8 mph 10.5 mph 90 % 0.3 in
22:00 5.7 °F 4.2 °F 1007.0 in ENE 5.5 mph 10.5 mph 90 % 0.3 in
22:01 5.7 °F 4.0 °F 1007.0 in ENE 5.3 mph 10.5 mph 89 % 0.3 in
22:06 5.7 °F 4.0 °F 1007.0 in NNE 4.5 mph 10.1 mph 89 % 0.3 in
22:08 5.7 °F 4.0 °F 1007.0 in North 4.2 mph 10.1 mph 89 % 0.3 in
22:13 5.7 °F 4.0 °F 1007.0 in ENE 4.0 mph 14.3 mph 89 % 0.3 in
22:15 5.7 °F 4.0 °F 1007.0 in ENE 3.5 mph 14.3 mph 89 % 0.3 in
22:21 5.7 °F 4.0 °F 1007.0 in ENE 4.8 mph 14.3 mph 89 % 0.3 in
22:22 5.7 °F 3.9 °F 1007.0 in East 5.0 mph 11.9 mph 88 % 0.3 in
22:23 5.7 °F 3.9 °F 1007.0 in East 5.0 mph 11.9 mph 88 % 0.3 in
22:28 5.7 °F 3.9 °F 1007.0 in ENE 6.3 mph 13.7 mph 88 % 0.3 in
22:32 5.7 °F 3.9 °F 1007.0 in ENE 6.4 mph 13.7 mph 88 % 0.3 in
22:37 5.6 °F 3.8 °F 1007.0 in NE 4.5 mph 11.1 mph 88 % 0.3 in
22:39 5.6 °F 3.8 °F 1007.0 in NE 4.3 mph 11.1 mph 88 % 0.3 in
22:44 5.6 °F 3.8 °F 1007.0 in ENE 5.5 mph 11.9 mph 88 % 0.3 in
22:49 5.5 °F 3.7 °F 1007.0 in ENE 5.5 mph 11.9 mph 88 % 0.3 in
22:55 5.4 °F 3.6 °F 1007.0 in SW 4.0 mph 8.7 mph 88 % 0.8 in
23:00 5.3 °F 3.5 °F 1007.0 in SW 5.1 mph 7.2 mph 88 % 0.8 in
23:01 5.3 °F 3.3 °F 1007.0 in SW 5.5 mph 7.2 mph 87 % 1.0 in
23:02 5.2 °F 3.2 °F 1007.0 in SW 5.5 mph 7.2 mph 87 % 1.0 in
23:07 5.1 °F 3.1 °F 1007.0 in SW 3.7 mph 7.2 mph 87 % 1.0 in
23:08 5.1 °F 3.1 °F 1007.0 in SW 3.4 mph 7.2 mph 87 % 1.0 in
23:13 5.1 °F 3.1 °F 1007.0 in SSW 1.0 mph 4.7 mph 87 % 1.3 in
23:14 5.1 °F 3.1 °F 1007.0 in South 0.5 mph 2.1 mph 87 % 1.5 in
23:16 5.0 °F 3.0 °F 1007.0 in SSE 0.2 mph 1.8 mph 87 % 1.5 in
23:21 5.0 °F 3.0 °F 1007.0 in SSW 0.3 mph 4.0 mph 87 % 1.5 in
23:25 4.9 °F 3.1 °F 1007.0 in WSW 1.4 mph 4.7 mph 88 % 1.5 in
23:28 4.9 °F 3.1 °F 1007.0 in WSW 1.9 mph 4.7 mph 88 % 1.5 in
23:30 4.8 °F 3.0 °F 1007.0 in West 1.9 mph 5.0 mph 88 % 1.8 in
23:35 4.8 °F 3.0 °F 1007.0 in SW 2.1 mph 5.5 mph 88 % 1.8 in
23:40 4.7 °F 2.9 °F 1007.0 in SSW 1.9 mph 5.0 mph 88 % 1.5 in
23:43 4.7 °F 2.9 °F 1007.0 in South 1.0 mph 4.0 mph 88 % 1.5 in
23:48 4.7 °F 2.9 °F 1007.0 in SE 1.0 mph 5.5 mph 88 % 1.5 in
23:49 4.6 °F 2.8 °F 1007.0 in SE 1.4 mph 7.9 mph 88 % 1.5 in
23:54 4.6 °F 2.8 °F 1007.0 in East 5.0 mph 10.5 mph 88 % 1.3 in
23:55 4.6 °F 2.8 °F 1007.0 in East 5.1 mph 10.5 mph 88 % 1.3 in
Vremenska postaja Senovo
Podatki zbrani iz Weather Underground - 3.75 mb

Script developed by  Jim McMurry - jmcmurry@mwt.net Adapted for the template by  Wim van der Kuil - Leuven-Template.eu

Vremenski podatki so objavljeni na:

European Weather Network

WeatherCloud

Weather Underground

AWEKAS

HAMweather, WeatherForYou, PWS Weather

MapView

Geostik

Slovenia weather network

Oprema, ki se uporablja:

Vremenski program
Cumulus

Vremenski server
Asus

Cumulus

Asus